createdAt,value
2019-05-07T00:01:26.047Z,24.9
2019-05-07T00:02:26.142Z,23.799999
2019-05-07T00:03:26.202Z,24.4
2019-05-07T00:04:26.298Z,26
2019-05-07T00:05:26.403Z,26.1
2019-05-07T00:06:26.508Z,25
2019-05-07T00:07:26.573Z,23.9
2019-05-07T00:11:27.001Z,23.9
2019-05-07T00:12:27.050Z,24
2019-05-07T00:13:27.126Z,23.700001
2019-05-07T00:14:27.268Z,22.4
2019-05-07T00:15:27.385Z,23.4
2019-05-07T00:16:27.469Z,24.299999
2019-05-07T00:17:27.551Z,23.700001
2019-05-07T00:21:27.944Z,23
2019-05-07T00:22:28.079Z,23.5
2019-05-07T00:23:28.139Z,24.299999
2019-05-07T00:24:28.197Z,20.799999
2019-05-07T00:25:28.285Z,23
2019-05-07T00:26:28.381Z,24.9
2019-05-07T00:27:28.457Z,20.6
2019-05-07T00:30:28.676Z,24.4
2019-05-07T00:31:28.779Z,21.700001
2019-05-07T00:32:28.874Z,24.299999
2019-05-07T00:33:28.955Z,21.700001
2019-05-07T00:34:29.048Z,23.200001
2019-05-07T00:35:29.122Z,19.9
2019-05-07T00:36:29.237Z,20.299999
2019-05-07T00:37:29.335Z,21.200001
2019-05-07T00:40:29.559Z,21.9
2019-05-07T00:41:31.387Z,21
2019-05-07T00:42:32.689Z,22.799999
2019-05-07T00:43:32.201Z,21
2019-05-07T00:44:32.772Z,21.200001
2019-05-07T00:45:32.580Z,23.200001
2019-05-07T00:46:32.130Z,22.9
2019-05-07T00:47:32.950Z,24.4
2019-05-07T00:49:30.180Z,26.4
2019-05-07T00:50:30.244Z,23.299999
2019-05-07T00:51:30.320Z,24.299999
2019-05-07T00:52:30.439Z,21.1
2019-05-07T00:53:32.391Z,22.5
2019-05-07T00:54:32.483Z,23.6
2019-05-07T00:55:32.554Z,22.299999
2019-05-07T00:56:33.168Z,23.799999
2019-05-07T00:57:32.419Z,21.799999
2019-05-07T00:58:32.082Z,23.299999
2019-05-07T01:00:33.153Z,22.799999
2019-05-07T01:01:32.397Z,21.799999
2019-05-07T01:02:32.319Z,24.700001
2019-05-07T01:03:32.818Z,24.200001
2019-05-07T01:04:33.115Z,22.4
2019-05-07T01:05:32.633Z,21.299999
2019-05-07T01:06:33.037Z,23
2019-05-07T01:07:32.627Z,23.5
2019-05-07T01:08:32.142Z,21.5
2019-05-07T01:09:32.346Z,20.4
2019-05-07T01:10:32.930Z,21.5
2019-05-07T01:11:33.463Z,22.1
2019-05-07T01:12:32.805Z,22.700001
2019-05-07T01:13:32.933Z,21.5
2019-05-07T01:14:32.621Z,25.200001
2019-05-07T01:15:34.445Z,22.5
2019-05-07T01:16:33.202Z,21.1
2019-05-07T01:17:33.467Z,23.1
2019-05-07T01:21:32.691Z,21.700001
2019-05-07T01:22:33.103Z,22.9
2019-05-07T01:23:32.652Z,23.5
2019-05-07T01:24:32.709Z,21.9
2019-05-07T01:25:32.976Z,24.1
2019-05-07T01:26:33.063Z,25.799999
2019-05-07T01:27:32.893Z,23.200001
2019-05-07T01:30:33.112Z,26.700001
2019-05-07T01:31:33.171Z,23.4
2019-05-07T01:32:33.260Z,25.200001
2019-05-07T01:33:33.353Z,25.5
2019-05-07T01:34:33.420Z,27.200001
2019-05-07T01:35:33.471Z,24.6
2019-05-07T01:36:33.565Z,26.5
2019-05-07T01:37:33.632Z,27.6
2019-05-07T01:40:34.836Z,28
2019-05-07T01:41:33.896Z,26
2019-05-07T01:42:36.551Z,29.9
2019-05-07T01:43:35.077Z,27.6
2019-05-07T01:44:34.148Z,28.200001
2019-05-07T01:45:45.050Z,25.4
2019-05-07T01:46:35.218Z,27.1
2019-05-07T01:47:34.297Z,28.799999
2019-05-07T01:50:34.560Z,28.200001
2019-05-07T01:51:34.635Z,29.200001
2019-05-07T01:52:34.719Z,29.200001
2019-05-07T01:53:34.828Z,26.299999
2019-05-07T01:54:34.942Z,30.799999
2019-05-07T01:55:35.016Z,26.9
2019-05-07T01:56:35.088Z,28
2019-05-07T01:57:35.177Z,24.799999
2019-05-07T02:00:35.481Z,29.1
2019-05-07T02:01:35.943Z,25.700001
2019-05-07T02:02:35.648Z,26
2019-05-07T02:03:35.705Z,25.200001
2019-05-07T02:04:35.786Z,27
2019-05-07T02:05:35.868Z,28.5
2019-05-07T02:06:35.912Z,28.799999
2019-05-07T02:07:35.975Z,28.700001
2019-05-07T02:10:36.237Z,28.1
2019-05-07T02:11:36.297Z,28.299999
2019-05-07T02:12:36.368Z,25.700001
2019-05-07T02:13:36.435Z,26.700001
2019-05-07T02:14:36.547Z,28.1
2019-05-07T02:15:36.631Z,27.700001
2019-05-07T02:16:36.715Z,29
2019-05-07T02:17:36.762Z,25.799999
2019-05-07T02:21:37.118Z,23.799999
2019-05-07T02:22:37.181Z,23.700001
2019-05-07T02:23:37.276Z,25.799999
2019-05-07T02:24:37.372Z,27.1
2019-05-07T02:25:37.456Z,29.9
2019-05-07T02:26:37.518Z,27.9
2019-05-07T02:27:37.643Z,26.700001
2019-05-07T02:30:37.891Z,27
2019-05-07T02:31:37.925Z,29
2019-05-07T02:32:37.972Z,25.700001
2019-05-07T02:33:38.034Z,24
2019-05-07T03:11:43.227Z,25.200001
2019-05-07T03:12:42.950Z,26.6
2019-05-07T03:13:43.188Z,26.200001
2019-05-07T03:14:43.748Z,27.9
2019-05-07T03:15:43.443Z,27.6
2019-05-07T03:16:45.130Z,26.4
2019-05-07T03:18:43.757Z,27.4
2019-05-07T03:20:42.947Z,29.200001
2019-05-07T03:21:44.011Z,27.200001
2019-05-07T03:22:42.936Z,26.4
2019-05-07T03:23:42.857Z,27.299999
2019-05-07T03:24:43.542Z,27
2019-05-07T03:25:43.194Z,28.200001
2019-05-07T03:26:43.384Z,25.700001
2019-05-07T03:27:43.200Z,28.4
2019-05-07T03:28:42.737Z,30.299999
2019-05-07T03:29:44.136Z,29
2019-05-07T03:30:45.448Z,33.099998
2019-05-07T03:31:46.518Z,29.6
2019-05-07T03:32:47.385Z,27.4
2019-05-07T03:33:46.946Z,28.6
2019-05-07T03:34:46.359Z,30.9
2019-05-07T03:35:46.309Z,30.6
2019-05-07T03:36:47.421Z,33.400002
2019-05-07T03:37:44.071Z,31.4
2019-05-07T03:38:43.989Z,27.799999
2019-05-07T03:39:43.206Z,33.299999
2019-05-07T03:40:44.736Z,31.9
2019-05-07T03:41:43.583Z,32.900002
2019-05-07T03:42:43.914Z,31.1
2019-05-07T03:43:43.663Z,29.6
2019-05-07T03:44:44.454Z,30.299999
2019-05-07T03:45:43.729Z,29.700001
2019-05-07T03:46:54.367Z,28.4
2019-05-07T03:47:44.197Z,30.1
2019-05-07T03:48:43.965Z,32.599998
2019-05-07T03:49:43.946Z,31.700001
2019-05-07T03:50:43.515Z,31.4
2019-05-07T03:51:44.131Z,33.200001
2019-05-07T03:52:44.183Z,28.5
2019-05-07T03:53:43.912Z,29.9
2019-05-07T03:54:43.341Z,29.9
2019-05-07T03:55:44.517Z,28.799999
2019-05-07T03:56:44.433Z,31
2019-05-07T03:57:44.092Z,32.200001
2019-05-07T03:58:44.678Z,30.299999
2019-05-07T03:59:43.781Z,31.700001
2019-05-07T04:00:44.384Z,32
2019-05-07T04:01:43.980Z,27.700001
2019-05-07T04:02:44.193Z,31.1
2019-05-07T04:03:44.921Z,27.799999
2019-05-07T04:04:44.337Z,29.799999
2019-05-07T04:05:44.418Z,27.799999
2019-05-07T04:09:44.804Z,26.1
2019-05-07T04:10:44.922Z,25.9
2019-05-07T04:11:44.935Z,29.1
2019-05-07T04:12:44.957Z,27.4
2019-05-07T04:13:45.001Z,26.9
2019-05-07T04:14:45.027Z,26
2019-05-07T04:15:45.020Z,27.299999
2019-05-07T04:16:45.067Z,27.9
2019-05-07T04:17:45.013Z,27.5
2019-05-07T04:18:45.193Z,28.700001
2019-05-07T04:19:45.209Z,30.1
2019-05-07T04:20:45.226Z,31
2019-05-07T04:21:45.259Z,27.6
2019-05-07T04:22:45.251Z,26.200001
2019-05-07T04:23:45.288Z,26.6
2019-05-07T04:24:45.340Z,27.700001
2019-05-07T04:25:45.305Z,26.200001
2019-05-07T04:26:45.470Z,27.799999
2019-05-07T04:27:47.137Z,25.9
2019-05-07T04:28:46.657Z,28.4
2019-05-07T04:29:45.666Z,28.1
2019-05-07T04:30:45.689Z,24.5
2019-05-07T04:31:45.682Z,28
2019-05-07T04:32:45.668Z,25.299999
2019-05-07T04:33:45.704Z,24.4
2019-05-07T04:34:45.702Z,26.4
2019-05-07T04:35:45.691Z,28.700001
2019-05-07T04:36:45.681Z,28.299999
2019-05-07T04:37:45.726Z,26
2019-05-07T04:38:45.785Z,26
2019-05-07T04:39:45.787Z,24.299999
2019-05-07T04:40:45.798Z,25.200001
2019-05-07T04:41:45.811Z,26
2019-05-07T04:42:45.802Z,25.700001
2019-05-07T04:43:45.847Z,23.799999
2019-05-07T04:44:45.864Z,25.6
2019-05-07T04:45:45.871Z,26
2019-05-07T04:46:48.071Z,23.5
2019-05-07T04:47:47.900Z,28
2019-05-07T04:48:46.977Z,28.5
2019-05-07T04:49:46.196Z,29.799999
2019-05-07T04:50:47.621Z,28.700001
2019-05-07T04:51:47.334Z,27.200001
2019-05-07T04:52:46.321Z,25.299999
2019-05-07T04:53:47.521Z,25.6
2019-05-07T04:54:46.542Z,27.700001
2019-05-07T04:55:46.554Z,28.200001
2019-05-07T04:56:46.558Z,26.200001
2019-05-07T04:57:46.562Z,26
2019-05-07T04:58:46.567Z,25.299999
2019-05-07T04:59:46.619Z,28.5
2019-05-07T05:00:46.655Z,26.299999
2019-05-07T05:01:46.668Z,25
2019-05-07T05:02:46.694Z,26.1
2019-05-07T05:03:46.685Z,25.299999
2019-05-07T05:04:46.750Z,26.4
2019-05-07T05:05:46.745Z,26.4
2019-05-07T05:06:46.756Z,25.4
2019-05-07T05:07:46.795Z,25.4
2019-05-07T05:08:46.825Z,24.799999
2019-05-07T05:09:47.052Z,29.1
2019-05-07T05:10:46.919Z,25.9
2019-05-07T05:11:46.953Z,25.1
2019-05-07T05:12:46.944Z,26.5
2019-05-07T05:13:46.955Z,27.700001
2019-05-07T05:14:47.039Z,27.1
2019-05-07T05:15:47.061Z,29.4
2019-05-07T05:16:47.077Z,25.5
2019-05-07T05:17:50.813Z,26.299999
2019-05-07T05:21:48.389Z,26.700001
2019-05-07T05:22:47.391Z,25.4
2019-05-07T05:23:47.392Z,28.4
2019-05-07T05:24:47.395Z,25.299999
2019-05-07T05:25:47.472Z,26.700001
2019-05-07T05:26:47.491Z,24.9
2019-05-07T05:27:47.496Z,25.1
2019-05-07T05:28:47.510Z,25.6
2019-05-07T05:29:47.518Z,26.1
2019-05-07T05:30:47.537Z,24.700001
2019-05-07T05:37:47.732Z,23.299999
2019-05-07T05:38:47.745Z,24.299999
2019-05-07T05:39:47.787Z,27.5
2019-05-07T05:40:47.831Z,25.6
2019-05-07T05:41:47.855Z,24.200001
2019-05-07T05:44:47.967Z,21.9
2019-05-07T05:45:48.008Z,20.9
2019-05-07T05:46:48.024Z,22.299999
2019-05-07T05:50:48.116Z,22
2019-05-07T05:51:48.149Z,20.6
2019-05-07T05:52:48.165Z,23.6
2019-05-07T05:57:48.304Z,22.200001
2019-05-07T05:58:48.322Z,24
2019-05-07T05:59:51.907Z,24.799999
2019-05-07T06:04:48.544Z,23.1
2019-05-07T06:05:48.726Z,20.6
2019-05-07T06:06:48.812Z,20.799999
2019-05-07T06:07:48.835Z,22.200001
2019-05-07T06:10:51.828Z,21.299999
2019-05-07T06:11:51.983Z,19.200001
2019-05-07T06:12:52.061Z,20.9
2019-05-07T06:13:50.207Z,21.9
2019-05-07T06:14:49.193Z,24.200001
2019-05-07T06:19:49.274Z,20.9
2019-05-07T06:20:49.300Z,19.9
2019-05-07T06:21:49.326Z,19
2019-05-07T06:22:49.344Z,18
2019-05-07T06:23:49.341Z,18.5
2019-05-07T06:24:49.342Z,16.700001
2019-05-07T06:25:50.074Z,17.700001
2019-05-07T06:26:52.204Z,15.4
2019-05-07T06:27:52.412Z,16.6
2019-05-07T06:28:51.874Z,16.6
2019-05-07T06:29:52.373Z,18.700001
2019-05-07T06:30:52.683Z,17.700001
2019-05-07T06:31:52.374Z,17.799999
2019-05-07T06:32:52.241Z,17.4
2019-05-07T06:33:52.301Z,16.9
2019-05-07T06:34:52.262Z,16.6
2019-05-07T06:35:52.023Z,15.6
2019-05-07T06:36:52.657Z,18.799999
2019-05-07T06:37:52.138Z,16.700001
2019-05-07T06:38:50.288Z,19.1
2019-05-07T06:39:50.304Z,16.9
2019-05-07T06:40:51.894Z,16.6
2019-05-07T06:42:52.322Z,16.9
2019-05-07T06:49:52.306Z,19
2019-05-07T06:50:52.256Z,17.799999
2019-05-07T06:51:52.242Z,18.1
2019-05-07T06:52:51.960Z,18.1
2019-05-07T06:53:51.826Z,17.4
2019-05-07T06:54:52.319Z,19.5
2019-05-07T06:55:52.024Z,17.799999
2019-05-07T06:56:52.336Z,20.700001
2019-05-07T06:57:52.763Z,19.5
2019-05-07T06:58:52.606Z,17.5
2019-05-07T06:59:52.915Z,16.9
2019-05-07T07:00:52.705Z,19.200001
2019-05-07T07:01:52.918Z,18
2019-05-07T07:02:52.504Z,17.799999
2019-05-07T07:03:52.683Z,20.1
2019-05-07T07:04:52.121Z,17.700001
2019-05-07T07:05:51.811Z,20.200001
2019-05-07T07:06:52.478Z,18.6
2019-05-07T07:07:52.673Z,17.6
2019-05-07T07:08:52.609Z,15.8
2019-05-07T07:09:52.179Z,20
2019-05-07T07:10:52.101Z,17.299999
2019-05-07T07:11:52.873Z,15.5
2019-05-07T07:12:52.957Z,16.6
2019-05-07T07:13:52.227Z,18.799999
2019-05-07T07:14:51.801Z,16.9
2019-05-07T07:15:52.156Z,17.299999
2019-05-07T07:16:52.634Z,15.8
2019-05-07T07:17:52.505Z,17.9
2019-05-07T07:18:52.949Z,14.7
2019-05-07T07:22:52.084Z,12.9
2019-05-07T07:23:52.355Z,14.2
2019-05-07T07:24:53.092Z,15.2
2019-05-07T07:25:52.727Z,15.3
2019-05-07T07:26:52.769Z,15.2
2019-05-07T07:27:52.823Z,17.4
2019-05-07T07:28:52.473Z,13.6
2019-05-07T07:29:52.327Z,15.5
2019-05-07T07:30:52.657Z,15.6
2019-05-07T07:31:52.733Z,14.2
2019-05-07T07:32:51.996Z,15.5
2019-05-07T07:33:52.581Z,15.4
2019-05-07T07:34:53.168Z,15.7
2019-05-07T07:35:53.003Z,14.5
2019-05-07T07:37:04.834Z,14.2
2019-05-07T07:37:53.169Z,13.3
2019-05-07T07:38:52.753Z,13.5
2019-05-07T07:39:52.451Z,13
2019-05-07T07:43:52.688Z,15.7
2019-05-07T07:44:52.567Z,12.9
2019-05-07T07:45:52.644Z,13.9
2019-05-07T07:46:53.180Z,13.1
2019-05-07T07:47:53.104Z,14.2
2019-05-07T07:49:06.354Z,15.2
2019-05-07T07:49:53.754Z,14.9
2019-05-07T07:50:52.784Z,13.7
2019-05-07T07:51:52.829Z,12.6
2019-05-07T07:52:53.165Z,14.6
2019-05-07T07:53:53.065Z,15
2019-05-07T07:54:53.145Z,14.9
2019-05-07T07:55:53.250Z,16.6
2019-05-07T07:56:56.169Z,13.3
2019-05-07T07:57:54.273Z,12.8
2019-05-07T07:58:53.408Z,13
2019-05-07T07:59:53.454Z,15.5
2019-05-07T08:00:53.433Z,13.2
2019-05-07T08:01:53.462Z,13.2
2019-05-07T08:02:53.599Z,13.9
2019-05-07T08:03:53.602Z,13.3
2019-05-07T08:04:53.756Z,13.6
2019-05-07T08:05:53.893Z,12.6
2019-05-07T08:06:53.881Z,11.9
2019-05-07T08:07:53.895Z,14.6
2019-05-07T08:08:53.924Z,10.8
2019-05-07T08:12:54.124Z,11.1
2019-05-07T08:13:54.145Z,9.8
2019-05-07T08:14:54.189Z,10.3
2019-05-07T08:15:54.199Z,11.2
2019-05-07T08:16:54.254Z,10.5
2019-05-07T08:17:54.309Z,11.6
2019-05-07T08:18:54.371Z,12.2
2019-05-07T08:19:54.500Z,9.9
2019-05-07T08:20:54.719Z,10.3
2019-05-07T08:21:54.694Z,11.5
2019-05-07T08:22:54.714Z,10.8
2019-05-07T08:23:54.770Z,10.2
2019-05-07T08:24:54.958Z,10.2
2019-05-07T08:25:55.043Z,9.8
2019-05-07T08:28:55.037Z,10.8
2019-05-07T08:29:55.067Z,11
2019-05-07T08:30:55.133Z,8.9
2019-05-07T08:31:55.358Z,10.3
2019-05-07T08:32:55.495Z,12.6
2019-05-07T08:33:55.635Z,10.6
2019-05-07T08:34:55.515Z,10.4
2019-05-07T08:35:55.658Z,12.9
2019-05-07T08:36:55.969Z,12.3
2019-05-07T08:37:55.835Z,10.9
2019-05-07T08:38:55.858Z,12.1
2019-05-07T08:39:55.850Z,12.5
2019-05-07T08:40:55.916Z,12.3
2019-05-07T08:41:55.901Z,13.1
2019-05-07T08:42:55.904Z,11.5
2019-05-07T08:44:08.030Z,13.3
2019-05-07T08:44:56.921Z,11.1
2019-05-07T08:45:55.944Z,11.4
2019-05-07T08:46:55.968Z,10.3
2019-05-07T08:47:55.993Z,9.6
2019-05-07T08:48:55.994Z,10
2019-05-07T08:49:56.032Z,9.4
2019-05-07T08:50:56.078Z,10.8
2019-05-07T08:51:56.105Z,9.5
2019-05-07T08:52:56.127Z,10.9
2019-05-07T08:53:56.127Z,9.5
2019-05-07T08:54:56.128Z,10.1
2019-05-07T08:55:56.206Z,10
2019-05-07T08:56:56.228Z,8.7
2019-05-07T08:57:56.209Z,12.2
2019-05-07T08:58:56.397Z,9.5
2019-05-07T09:00:00.937Z,9.1
2019-05-07T09:00:57.572Z,10.4
2019-05-07T09:01:56.573Z,9.7
2019-05-07T09:02:56.573Z,9.2
2019-05-07T09:03:56.585Z,11.2
2019-05-07T09:04:56.611Z,9.2
2019-05-07T09:05:56.643Z,7.8
2019-05-07T09:06:56.696Z,7.2
2019-05-07T09:07:56.746Z,7.4
2019-05-07T09:08:56.759Z,9.7
2019-05-07T09:09:56.757Z,8.4
2019-05-07T09:10:56.849Z,8.9
2019-05-07T09:11:56.862Z,9.6
2019-05-07T09:12:56.866Z,10.1
2019-05-07T09:13:56.867Z,9.1
2019-05-07T09:14:56.890Z,8.7
2019-05-07T09:15:56.902Z,10.8
2019-05-07T09:16:56.943Z,7.7
2019-05-07T09:17:56.983Z,8.7
2019-05-07T09:18:57.007Z,8.3
2019-05-07T09:19:57.022Z,8.7
2019-05-07T09:20:57.056Z,10.2
2019-05-07T09:21:57.091Z,9.6
2019-05-07T09:22:57.107Z,11
2019-05-07T09:23:57.097Z,9.3
2019-05-07T09:24:57.119Z,8.5
2019-05-07T09:25:57.141Z,10.6
2019-05-07T09:26:57.197Z,8.3
2019-05-07T09:27:57.210Z,8.6
2019-05-07T09:28:57.251Z,9
2019-05-07T09:29:57.298Z,9.7
2019-05-07T09:30:57.319Z,9.3
2019-05-07T09:31:57.354Z,9.2
2019-05-07T09:32:57.395Z,8.8
2019-05-07T09:33:57.367Z,9.5
2019-05-07T09:34:57.609Z,9.6
2019-05-07T09:37:57.610Z,10.3
2019-05-07T09:38:59.278Z,8.9
2019-05-07T09:39:58.751Z,10.6
2019-05-07T09:40:57.724Z,10.6
2019-05-07T09:41:57.956Z,10.4
2019-05-07T09:42:58.146Z,8.9
2019-05-07T09:51:58.138Z,10
2019-05-07T09:52:58.142Z,9.2
2019-05-07T09:53:58.173Z,12.9
2019-05-07T09:54:58.182Z,12.7
2019-05-07T09:55:58.204Z,12.9
2019-05-07T09:56:58.222Z,13.3
2019-05-07T09:57:58.317Z,12.1
2019-05-07T10:00:58.394Z,13.6
2019-05-07T10:01:58.419Z,12.8
2019-05-07T10:06:58.541Z,13.7
2019-05-07T10:07:58.617Z,14.3
2019-05-07T10:08:58.610Z,12.9
2019-05-07T10:09:58.622Z,11.5
2019-05-07T10:10:58.629Z,11.2
2019-05-07T10:11:58.640Z,11.8
2019-05-07T10:12:58.681Z,11.4
2019-05-07T10:13:58.678Z,12.3
2019-05-07T10:14:58.688Z,10.6
2019-05-07T10:15:58.694Z,11.6
2019-05-07T10:16:58.684Z,12.1
2019-05-07T10:17:58.749Z,11.7
2019-05-07T10:18:58.791Z,10.3
2019-05-07T10:19:58.911Z,10.4
2019-05-07T10:20:58.941Z,9.3
2019-05-07T10:21:58.948Z,9.3
2019-05-07T10:24:59.115Z,9.7
2019-05-07T10:25:59.124Z,8.1
2019-05-07T10:26:59.155Z,9.7
2019-05-07T10:27:59.170Z,10.2
2019-05-07T10:28:59.255Z,7.8
2019-05-07T10:29:59.312Z,10.6
2019-05-07T10:30:59.377Z,9.5
2019-05-07T10:31:59.399Z,7.8
2019-05-07T10:33:01.646Z,7.9
2019-05-07T10:34:02.889Z,8.3
2019-05-07T10:35:02.067Z,8.5
2019-05-07T10:36:02.059Z,7.6
2019-05-07T10:37:02.565Z,8.1
2019-05-07T10:38:01.915Z,6.3
2019-05-07T10:39:02.485Z,7
2019-05-07T10:40:02.999Z,7.1
2019-05-07T10:41:02.803Z,6.7
2019-05-07T10:42:01.802Z,8.3
2019-05-07T10:43:00.961Z,6.6
2019-05-07T10:43:59.993Z,6.5
2019-05-07T10:45:00.080Z,6.2
2019-05-07T10:46:02.262Z,6.8
2019-05-07T10:47:01.982Z,7.6
2019-05-07T10:48:02.410Z,7.3
2019-05-07T10:49:01.949Z,6.3
2019-05-07T10:50:00.283Z,6.3
2019-05-07T10:51:02.075Z,6.2
2019-05-07T10:52:02.132Z,5.5
2019-05-07T10:53:02.040Z,5.8
2019-05-07T10:54:02.219Z,6.3
2019-05-07T10:55:02.676Z,5.4
2019-05-07T10:56:02.655Z,6.2
2019-05-07T10:57:01.465Z,6.1
2019-05-07T10:58:02.751Z,5.8
2019-05-07T10:59:02.798Z,6.3
2019-05-07T11:00:03.146Z,6.2
2019-05-07T11:01:02.845Z,7.2
2019-05-07T11:02:02.421Z,6.8
2019-05-07T11:03:02.329Z,6.8
2019-05-07T11:04:02.183Z,6.6
2019-05-07T11:05:02.270Z,6.7
2019-05-07T11:06:00.758Z,7.8
2019-05-07T11:07:00.823Z,6.9
2019-05-07T11:08:02.065Z,6.6
2019-05-07T11:09:01.904Z,7
2019-05-07T11:10:01.907Z,8.3
2019-05-07T11:11:02.869Z,6.9
2019-05-07T11:12:02.523Z,6.6
2019-05-07T11:13:02.280Z,7.2
2019-05-07T11:15:02.144Z,7
2019-05-07T11:17:02.589Z,7.8
2019-05-07T11:19:02.017Z,8.1
2019-05-07T11:22:01.611Z,7.4
2019-05-07T11:23:02.598Z,7.8
2019-05-07T11:24:03.306Z,8.5
2019-05-07T11:25:02.993Z,8.4
2019-05-07T11:26:02.734Z,7.4
2019-05-07T11:27:02.399Z,7.9
2019-05-07T11:28:02.789Z,8.5
2019-05-07T11:29:02.816Z,8.3
2019-05-07T11:30:02.669Z,7.8
2019-05-07T11:31:02.223Z,8.3
2019-05-07T11:32:01.960Z,9.1
2019-05-07T11:33:02.633Z,8
2019-05-07T11:34:02.730Z,7.9
2019-05-07T11:35:03.077Z,8.1
2019-05-07T11:36:03.046Z,8.6
2019-05-07T11:37:02.477Z,8.3
2019-05-07T11:38:06.676Z,9.2
2019-05-07T11:39:03.086Z,8.7
2019-05-07T11:40:03.149Z,8.7
2019-05-07T11:41:03.195Z,9.3
2019-05-07T11:42:02.406Z,8.5
2019-05-07T12:01:03.912Z,8.6
2019-05-07T12:02:03.920Z,9.4
2019-05-07T12:03:03.000Z,9
2019-05-07T12:04:02.998Z,9.2
2019-05-07T12:05:04.164Z,9.3
2019-05-07T12:06:03.154Z,9.6
2019-05-07T12:07:03.162Z,9.3
2019-05-07T12:08:03.535Z,10.1
2019-05-07T12:09:03.213Z,9.7
2019-05-07T12:10:04.925Z,9.8
2019-05-07T12:11:04.432Z,9.7
2019-05-07T12:12:03.446Z,10.3
2019-05-07T12:13:03.496Z,9.6
2019-05-07T12:14:03.498Z,9.9
2019-05-07T12:15:03.528Z,9.6
2019-05-07T12:16:03.575Z,9.3
2019-05-07T12:17:03.630Z,10.4
2019-05-07T12:18:03.695Z,10.3
2019-05-07T12:19:03.703Z,10.1
2019-05-07T12:20:03.724Z,10.8
2019-05-07T12:21:16.697Z,10.8
2019-05-07T12:22:04.809Z,11.7
2019-05-07T12:23:03.830Z,12.4
2019-05-07T12:24:03.846Z,11.9
2019-05-07T12:25:03.876Z,10.9
2019-05-07T12:26:03.913Z,10.6
2019-05-07T12:27:03.960Z,10.3
2019-05-07T12:28:04.037Z,11.5
2019-05-07T12:29:04.063Z,11.5
2019-05-07T12:30:04.098Z,11
2019-05-07T12:31:04.242Z,12.2
2019-05-07T12:32:04.309Z,12.2
2019-05-07T12:33:04.358Z,13
2019-05-07T12:34:04.490Z,10.6
2019-05-07T12:35:04.517Z,11.2
2019-05-07T12:36:04.543Z,10.3
2019-05-07T12:37:04.614Z,11
2019-05-07T12:38:04.646Z,10.7
2019-05-07T12:39:04.699Z,9.8
2019-05-07T12:40:04.754Z,11.9
2019-05-07T12:41:04.763Z,9.8
2019-05-07T12:42:04.830Z,11.1
2019-05-07T12:43:04.845Z,12.3
2019-05-07T12:44:04.904Z,13
2019-05-07T12:45:04.904Z,11.7
2019-05-07T12:46:04.939Z,14.4
2019-05-07T12:47:04.973Z,14.1
2019-05-07T12:48:05.021Z,13.5
2019-05-07T12:49:05.077Z,14.4
2019-05-07T12:50:05.236Z,13.3
2019-05-07T12:51:05.191Z,14.2
2019-05-07T12:52:05.245Z,14.5
2019-05-07T12:53:05.268Z,14.7
2019-05-07T12:54:05.322Z,15.3
2019-05-07T12:55:05.338Z,15.1
2019-05-07T12:56:05.405Z,17.200001
2019-05-07T12:57:05.587Z,14.8
2019-05-07T12:58:05.635Z,13.9
2019-05-07T12:59:05.695Z,12.7
2019-05-07T13:00:05.778Z,12.7
2019-05-07T13:01:05.708Z,13.2
2019-05-07T13:02:16.663Z,12.6
2019-05-07T13:03:06.917Z,12.3
2019-05-07T13:04:05.890Z,11.4
2019-05-07T13:05:06.045Z,11
2019-05-07T13:06:06.205Z,15.1
2019-05-07T13:07:06.331Z,11.9
2019-05-07T13:08:06.506Z,11.1
2019-05-07T13:09:06.473Z,10.6
2019-05-07T13:10:08.449Z,9.4
2019-05-07T13:11:07.568Z,10.4
2019-05-07T13:12:06.603Z,10.4
2019-05-07T13:13:06.629Z,9.2
2019-05-07T13:14:06.814Z,10.9
2019-05-07T13:15:06.820Z,9.4
2019-05-07T13:16:06.832Z,10.2
2019-05-07T13:17:06.860Z,9.2
2019-05-07T13:18:06.886Z,8.4
2019-05-07T13:19:06.954Z,9.8
2019-05-07T13:20:07.065Z,21.700001
2019-05-07T13:21:07.058Z,9.2
2019-05-07T13:22:07.099Z,11.8
2019-05-07T13:23:07.120Z,10.2
2019-05-07T13:24:07.159Z,9.7
2019-05-07T13:25:07.214Z,9
2019-05-07T13:26:07.264Z,9.2
2019-05-07T13:27:07.273Z,8.5
2019-05-07T13:28:07.329Z,8.5
2019-05-07T13:29:07.364Z,9
2019-05-07T13:30:07.475Z,8.6
2019-05-07T13:31:07.521Z,17.4
2019-05-07T13:32:07.540Z,14.8
2019-05-07T13:33:07.585Z,9
2019-05-07T13:34:07.621Z,12.6
2019-05-07T13:35:07.666Z,11.3
2019-05-07T13:36:07.720Z,9.8
2019-05-07T13:37:07.797Z,9
2019-05-07T13:38:07.800Z,7.8
2019-05-07T13:39:07.846Z,11
2019-05-07T13:40:07.900Z,9.2
2019-05-07T13:41:07.929Z,9.1
2019-05-07T13:42:07.960Z,8.4
2019-05-07T13:43:08.020Z,21.299999
2019-05-07T13:44:08.063Z,22.5
2019-05-07T13:45:08.121Z,14.5
2019-05-07T13:46:08.181Z,16.6
2019-05-07T13:47:08.199Z,11.7
2019-05-07T13:48:08.239Z,30.700001
2019-05-07T13:49:09.245Z,15.4
2019-05-07T13:50:08.316Z,13.4
2019-05-07T13:51:08.513Z,9.1
2019-05-07T13:52:08.374Z,8.3
2019-05-07T13:53:08.410Z,8.7
2019-05-07T13:54:08.524Z,8.8
2019-05-07T13:55:08.583Z,8
2019-05-07T13:56:08.648Z,8.8
2019-05-07T13:57:08.705Z,8.1
2019-05-07T13:58:08.731Z,8.2
2019-05-07T13:59:08.749Z,7.8
2019-05-07T14:00:08.861Z,9.3
2019-05-07T14:01:09.025Z,9.7
2019-05-07T14:02:08.933Z,14.1
2019-05-07T14:03:08.996Z,12.9
2019-05-07T14:04:09.035Z,9.6
2019-05-07T14:05:09.092Z,11.7
2019-05-07T14:06:09.152Z,10.9
2019-05-07T14:07:09.237Z,15.4
2019-05-07T14:08:09.320Z,12.3
2019-05-07T14:09:09.433Z,11.5
2019-05-07T14:10:09.436Z,13.7
2019-05-07T14:11:09.619Z,12.9
2019-05-07T14:12:09.657Z,13.4
2019-05-07T14:13:14.901Z,14.2
2019-05-07T14:14:12.264Z,20.6
2019-05-07T14:15:12.549Z,11.8
2019-05-07T14:16:12.007Z,10.1
2019-05-07T14:17:12.642Z,10.6
2019-05-07T14:18:11.556Z,12.1
2019-05-07T14:19:10.115Z,11.3
2019-05-07T14:20:10.069Z,11.9
2019-05-07T14:21:12.789Z,11.5
2019-05-07T14:22:16.000Z,14.2
2019-05-07T14:23:12.569Z,11.5
2019-05-07T14:24:12.293Z,10.2
2019-05-07T14:25:11.430Z,10.6
2019-05-07T14:26:10.426Z,10.7
2019-05-07T14:27:10.482Z,10.4
2019-05-07T14:28:10.500Z,11.3
2019-05-07T14:36:11.930Z,10.3
2019-05-07T14:37:12.902Z,10.2
2019-05-07T14:39:10.891Z,10.3
2019-05-07T14:40:12.746Z,11.3
2019-05-07T14:41:12.987Z,12.1
2019-05-07T14:42:12.890Z,10.4
2019-05-07T14:44:12.046Z,10.5
2019-05-07T14:46:11.966Z,11
2019-05-07T14:48:12.124Z,11.3
2019-05-07T14:50:12.305Z,11.5
2019-05-07T15:32:13.772Z,27.799999
2019-05-07T15:33:13.830Z,15.9
2019-05-07T15:34:13.938Z,29.9
2019-05-07T15:48:15.084Z,11.1
2019-05-07T15:49:15.183Z,11.4
2019-05-07T15:50:15.249Z,13.6
2019-05-07T15:54:15.466Z,11.3
2019-05-07T15:55:15.536Z,11
2019-05-07T15:56:15.545Z,12
2019-05-07T15:59:15.632Z,11.8
2019-05-07T16:00:15.690Z,13
2019-05-07T16:01:15.733Z,11.9
2019-05-07T16:15:16.447Z,12
2019-05-07T16:16:16.474Z,12.3
2019-05-07T16:17:16.501Z,12.8
2019-05-07T16:18:16.554Z,11.6
2019-05-07T16:21:16.653Z,14.3
2019-05-07T16:22:16.667Z,12.7
2019-05-07T16:32:17.014Z,14.5
2019-05-07T16:33:17.045Z,12.7
2019-05-07T16:34:17.112Z,12.6
2019-05-07T16:41:18.191Z,14.7
2019-05-07T16:42:17.602Z,12.9
2019-05-07T17:26:19.791Z,15.5
2019-05-07T17:27:19.822Z,15.4
2019-05-07T17:28:19.868Z,14.8
2019-05-07T17:42:22.371Z,14.8
2019-05-07T17:43:22.060Z,17.1
2019-05-07T17:44:23.070Z,14.2
2019-05-07T18:51:23.099Z,18.9
2019-05-07T18:52:23.157Z,18.799999
2019-05-07T18:55:23.513Z,20.700001
2019-05-07T18:56:23.526Z,19.799999
2019-05-07T18:57:23.622Z,19.9
2019-05-07T18:58:23.685Z,20.1
2019-05-07T20:17:33.380Z,40.099998
2019-05-07T20:18:33.160Z,33.5
2019-05-07T20:19:32.312Z,33.099998
2019-05-07T20:20:33.210Z,34.099998
2019-05-07T20:21:32.285Z,29.9
2019-05-07T20:22:33.263Z,26.5
2019-05-07T20:23:32.315Z,27.200001
2019-05-07T20:24:33.200Z,26
2019-05-07T20:25:32.900Z,28
2019-05-07T20:26:32.989Z,25.799999
2019-05-07T20:27:32.726Z,26.200001
2019-05-07T20:28:32.731Z,25.299999
2019-05-07T20:29:32.481Z,26
2019-05-07T20:30:32.912Z,23.6
2019-05-07T20:31:33.130Z,25.4
2019-05-07T20:33:33.136Z,27.9
2019-05-07T20:34:33.339Z,25.5
2019-05-07T20:35:32.773Z,25.5
2019-05-07T20:36:32.982Z,27.4
2019-05-07T20:37:33.031Z,25.799999
2019-05-07T20:38:33.131Z,24.5
2019-05-07T20:39:33.094Z,27.5
2019-05-07T20:40:33.133Z,25.200001
2019-05-07T20:41:33.264Z,24.9
2019-05-07T21:00:34.668Z,25.9
2019-05-07T21:01:34.730Z,26.9
2019-05-07T21:02:44.244Z,26.5
2019-05-07T21:20:36.424Z,27
2019-05-07T21:21:36.470Z,28.700001
2019-05-07T21:22:36.520Z,27